Time;durP1;ratioP1;P1;durP2;ratioP2;P2;SDS_P1;SDS_P2;PMS_P1;PMS_P2;Temp;Humidity;BMP_temperature;BMP_pressure;BME280_temperature;BME280_humidity;BME280_pressure;Samples;Min_cycle;Max_cycle;Signal;HPM_P1;HPM_P2
2023/03/08 00:02:03;;;;;;;12.00;7.63;;;;;;;;;;5106431;28;20229;-68
2023/03/08 00:04:31;;;;;;;7.50;6.80;;;;;;;;;;5106394;28;20199;-68
2023/03/08 00:06:57;;;;;;;12.95;7.60;;;;;;;;;;5106551;28;20234;-68
2023/03/08 00:09:23;;;;;;;9.88;6.97;;;;;;;;;;5106142;28;20249;-68
2023/03/08 00:11:49;;;;;;;9.10;6.90;;;;;;;;;;5106081;28;20257;-68
2023/03/08 00:14:16;;;;;;;9.52;7.20;;;;;;;;;;5106509;28;20425;-68
2023/03/08 00:16:42;;;;;;;8.70;6.85;;;;;;;;;;5106760;28;20511;-70
2023/03/08 00:19:09;;;;;;;9.23;6.72;;;;;;;;;;5106117;28;20196;-69
2023/03/08 00:21:36;;;;;;;10.57;7.60;;;;;;;;;;5106347;28;20230;-70
2023/03/08 00:24:02;;;;;;;8.77;7.35;;;;;;;;;;5106465;28;20217;-69
2023/03/08 00:26:29;;;;;;;8.95;6.82;;;;;;;;;;5106462;28;20196;-69
2023/03/08 00:28:55;;;;;;;9.25;7.07;;;;;;;;;;5106332;28;20215;-69
2023/03/08 00:31:21;;;;;;;11.70;6.80;;;;;;;;;;5106082;28;20246;-68
2023/03/08 00:33:48;;;;;;;9.50;6.90;;;;;;;;;;5106285;28;20242;-69
2023/03/08 00:36:15;;;;;;;8.23;6.53;;;;;;;;;;5106005;28;20241;-70
2023/03/08 00:38:42;;;;;;;11.80;7.40;;;;;;;;;;5105645;28;20496;-69
2023/03/08 00:41:09;;;;;;;9.93;7.50;;;;;;;;;;5105788;28;20203;-69
2023/03/08 00:43:35;;;;;;;8.23;7.00;;;;;;;;;;5106068;28;20199;-69
2023/03/08 00:46:01;;;;;;;11.15;7.55;;;;;;;;;;5105629;28;20200;-70
2023/03/08 00:48:28;;;;;;;12.15;7.72;;;;;;;;;;5105797;28;20222;-69
2023/03/08 00:50:54;;;;;;;9.70;7.43;;;;;;;;;;5105807;28;20269;-69
2023/03/08 00:53:20;;;;;;;10.93;7.65;;;;;;;;;;5105903;28;20249;-68
2023/03/08 00:55:51;;;;;;;10.75;8.18;;;;;;;;;;5105630;28;20233;-68
2023/03/08 00:58:18;;;;;;;9.77;7.18;;;;;;;;;;5104310;28;20261;-68
2023/03/08 01:00:44;;;;;;;11.10;7.47;;;;;;;;;;5105632;28;20257;-68
2023/03/08 01:03:10;;;;;;;8.55;7.15;;;;;;;;;;5105526;28;20324;-70
2023/03/08 01:05:38;;;;;;;13.02;7.90;;;;;;;;;;5105360;28;20195;-69
2023/03/08 01:08:05;;;;;;;9.05;7.38;;;;;;;;;;5104987;28;20548;-69
2023/03/08 01:10:31;;;;;;;9.85;7.72;;;;;;;;;;5105352;28;20212;-68
2023/03/08 01:12:59;;;;;;;9.68;7.45;;;;;;;;;;5105354;28;20219;-68
2023/03/08 01:15:25;;;;;;;11.75;7.43;;;;;;;;;;5105305;28;20241;-69
2023/03/08 01:17:51;;;;;;;12.13;8.18;;;;;;;;;;5104808;28;20241;-70
2023/03/08 01:20:17;;;;;;;9.70;7.68;;;;;;;;;;5105166;28;20241;-70
2023/03/08 01:22:44;;;;;;;11.02;7.72;;;;;;;;;;5105575;28;20244;-70
2023/03/08 01:25:10;;;;;;;10.10;7.75;;;;;;;;;;5104986;28;20215;-69
2023/03/08 01:27:36;;;;;;;8.75;7.15;;;;;;;;;;5105028;28;20216;-70
2023/03/08 01:30:04;;;;;;;11.32;7.80;;;;;;;;;;5105227;28;20499;-69
2023/03/08 01:32:30;;;;;;;9.38;6.97;;;;;;;;;;5105125;28;20265;-70
2023/03/08 01:35:02;;;;;;;11.10;7.75;;;;;;;;;;5104583;28;20195;-70
2023/03/08 01:37:28;;;;;;;10.10;7.35;;;;;;;;;;5104542;28;20515;-70
2023/03/08 01:39:54;;;;;;;10.02;7.53;;;;;;;;;;5104811;28;20555;-69
2023/03/08 01:42:20;;;;;;;12.23;7.82;;;;;;;;;;5104884;28;20237;-70
2023/03/08 01:44:54;;;;;;;11.30;8.15;;;;;;;;;;5104698;28;20196;-69
2023/03/08 01:47:22;;;;;;;10.60;7.90;;;;;;;;;;5104616;28;20196;-69
2023/03/08 01:49:49;;;;;;;12.27;7.28;;;;;;;;;;5104351;28;20386;-68
2023/03/08 01:52:18;;;;;;;8.77;7.53;;;;;;;;;;5104197;28;20297;-69
2023/03/08 01:54:47;;;;;;;13.38;7.55;;;;;;;;;;5104390;28;20556;-68
2023/03/08 01:57:16;;;;;;;11.15;7.43;;;;;;;;;;5104368;28;20556;-69
2023/03/08 01:59:42;;;;;;;11.07;7.90;;;;;;;;;;5104080;28;20191;-70
2023/03/08 02:02:09;;;;;;;13.80;7.65;;;;;;;;;;5104651;28;20497;-69
2023/03/08 02:04:38;;;;;;;9.45;7.07;;;;;;;;;;5104375;28;20250;-68
2023/03/08 02:07:04;;;;;;;10.80;7.97;;;;;;;;;;5104377;28;20234;-68
2023/03/08 02:09:30;;;;;;;10.55;7.80;;;;;;;;;;5103565;28;20219;-68
2023/03/08 02:11:59;;;;;;;12.18;7.60;;;;;;;;;;5104347;28;20227;-68
2023/03/08 02:14:26;;;;;;;9.85;7.65;;;;;;;;;;5104059;28;20233;-70
2023/03/08 02:16:52;;;;;;;9.38;7.53;;;;;;;;;;5103840;28;20196;-68
2023/03/08 02:19:22;;;;;;;10.63;7.28;;;;;;;;;;5104003;28;20203;-68
2023/03/08 02:21:49;;;;;;;10.43;7.53;;;;;;;;;;5104169;28;20191;-68
2023/03/08 02:24:19;;;;;;;11.30;7.00;;;;;;;;;;5104048;28;20196;-68
2023/03/08 02:26:46;;;;;;;9.88;7.60;;;;;;;;;;5103886;28;20432;-68
2023/03/08 02:29:12;;;;;;;10.65;8.07;;;;;;;;;;5103521;28;20446;-68
2023/03/08 02:31:38;;;;;;;13.27;8.15;;;;;;;;;;5103460;28;20350;-67
2023/03/08 02:34:04;;;;;;;10.27;7.22;;;;;;;;;;5103746;28;20440;-70
2023/03/08 02:36:31;;;;;;;11.05;7.82;;;;;;;;;;5103820;28;20491;-67
2023/03/08 02:38:57;;;;;;;12.52;8.05;;;;;;;;;;5103441;28;20196;-68
2023/03/08 02:41:25;;;;;;;11.52;8.52;;;;;;;;;;5103914;28;20192;-68
2023/03/08 02:43:51;;;;;;;12.82;8.13;;;;;;;;;;5103684;28;20196;-68
2023/03/08 02:46:17;;;;;;;11.02;7.60;;;;;;;;;;5103403;28;20204;-70
2023/03/08 02:48:44;;;;;;;9.35;7.55;;;;;;;;;;5103459;28;20233;-68
2023/03/08 02:51:11;;;;;;;9.30;7.25;;;;;;;;;;5103387;28;20195;-68
2023/03/08 02:53:37;;;;;;;9.88;7.45;;;;;;;;;;5103387;28;20199;-68
2023/03/08 02:56:04;;;;;;;9.55;7.38;;;;;;;;;;5103416;28;20210;-68
2023/03/08 02:58:31;;;;;;;10.55;7.93;;;;;;;;;;5102435;28;20200;-68
2023/03/08 03:00:57;;;;;;;10.32;7.38;;;;;;;;;;5103114;28;20241;-68
2023/03/08 03:03:24;;;;;;;12.85;7.88;;;;;;;;;;5102808;28;20196;-68
2023/03/08 03:05:50;;;;;;;12.20;8.15;;;;;;;;;;5103171;28;20213;-68
2023/03/08 03:08:16;;;;;;;11.82;8.65;;;;;;;;;;5102730;28;20199;-68
2023/03/08 03:10:42;;;;;;;12.23;7.53;;;;;;;;;;5102916;28;20195;-68
2023/03/08 03:13:09;;;;;;;13.88;8.07;;;;;;;;;;5102989;28;20261;-68
2023/03/08 03:15:39;;;;;;;8.23;7.05;;;;;;;;;;5103047;28;20242;-68
2023/03/08 03:18:05;;;;;;;10.80;8.38;;;;;;;;;;5102765;28;20376;-68
2023/03/08 03:20:31;;;;;;;11.48;7.50;;;;;;;;;;5102570;28;20195;-68
2023/03/08 03:22:58;;;;;;;11.85;7.70;;;;;;;;;;5102249;28;20229;-68
2023/03/08 03:25:24;;;;;;;9.48;7.13;;;;;;;;;;5102841;28;20196;-68
2023/03/08 03:27:52;;;;;;;11.85;8.18;;;;;;;;;;5102629;28;20269;-68
2023/03/08 03:30:18;;;;;;;9.35;7.38;;;;;;;;;;5103023;28;20204;-68
2023/03/08 03:32:46;;;;;;;12.15;7.85;;;;;;;;;;5102709;28;20220;-67
2023/03/08 03:35:12;;;;;;;10.30;7.88;;;;;;;;;;5102569;28;20203;-68
2023/03/08 03:37:39;;;;;;;13.48;7.13;;;;;;;;;;5101902;28;20192;-68
2023/03/08 03:40:05;;;;;;;10.30;8.05;;;;;;;;;;5102821;28;20201;-68
2023/03/08 03:42:32;;;;;;;14.70;8.20;;;;;;;;;;5102750;28;20664;-68
2023/03/08 03:44:58;;;;;;;10.98;7.78;;;;;;;;;;5102665;28;20241;-68
2023/03/08 03:47:24;;;;;;;11.48;8.20;;;;;;;;;;5102407;28;20241;-68
2023/03/08 03:49:52;;;;;;;9.73;8.05;;;;;;;;;;5102389;28;20249;-68
2023/03/08 03:52:18;;;;;;;9.80;7.57;;;;;;;;;;5102300;28;20219;-68
2023/03/08 03:54:44;;;;;;;10.07;7.60;;;;;;;;;;5102673;28;20200;-68
2023/03/08 03:57:10;;;;;;;10.50;8.07;;;;;;;;;;5102369;28;20422;-70
2023/03/08 03:59:37;;;;;;;12.18;7.40;;;;;;;;;;5102161;28;20564;-68
2023/03/08 04:02:03;;;;;;;9.93;7.68;;;;;;;;;;5102590;28;20200;-68
2023/03/08 04:04:29;;;;;;;12.30;8.13;;;;;;;;;;5102297;28;20204;-68
2023/03/08 04:06:57;;;;;;;11.25;7.75;;;;;;;;;;5102310;28;20200;-68
2023/03/08 04:09:23;;;;;;;10.18;7.57;;;;;;;;;;5101859;28;20208;-68
2023/03/08 04:11:49;;;;;;;14.30;7.90;;;;;;;;;;5102524;28;20245;-68
2023/03/08 04:14:16;;;;;;;9.32;7.00;;;;;;;;;;5102140;28;20241;-68
2023/03/08 04:16:42;;;;;;;9.32;7.07;;;;;;;;;;5102107;28;20334;-68
2023/03/08 04:19:10;;;;;;;12.60;7.82;;;;;;;;;;5102463;28;20403;-69
2023/03/08 04:21:37;;;;;;;12.05;7.50;;;;;;;;;;5102101;28;20310;-69
2023/03/08 04:24:05;;;;;;;9.70;7.15;;;;;;;;;;5102319;28;20218;-70
2023/03/08 04:26:31;;;;;;;13.38;9.05;;;;;;;;;;5102291;28;20203;-67
2023/03/08 04:28:57;;;;;;;12.98;7.90;;;;;;;;;;5101873;28;20254;-70
2023/03/08 04:31:24;;;;;;;16.35;8.75;;;;;;;;;;5102034;28;20206;-69
2023/03/08 04:33:51;;;;;;;12.60;7.88;;;;;;;;;;5104631;28;20264;-69
2023/03/08 04:36:18;;;;;;;14.32;7.85;;;;;;;;;;5105983;28;20204;-70
2023/03/08 04:38:45;;;;;;;11.45;8.40;;;;;;;;;;5105538;28;20245;-70
2023/03/08 04:41:13;;;;;;;11.98;7.82;;;;;;;;;;5106147;28;20512;-69
2023/03/08 04:43:39;;;;;;;11.70;7.70;;;;;;;;;;5105641;28;20196;-69
2023/03/08 04:46:06;;;;;;;14.15;8.35;;;;;;;;;;5105551;28;20199;-69
2023/03/08 04:48:32;;;;;;;12.55;8.20;;;;;;;;;;5105587;28;20203;-70
2023/03/08 04:50:59;;;;;;;10.73;7.75;;;;;;;;;;5105531;28;20203;-69
2023/03/08 04:53:26;;;;;;;12.13;8.43;;;;;;;;;;5105487;28;20538;-69
2023/03/08 04:55:53;;;;;;;10.25;7.78;;;;;;;;;;5105525;28;20217;-70
2023/03/08 04:58:21;;;;;;;12.07;8.15;;;;;;;;;;5105287;28;20241;-69
2023/03/08 05:00:47;;;;;;;12.32;7.97;;;;;;;;;;5105577;28;20415;-70
2023/03/08 05:03:13;;;;;;;11.55;7.90;;;;;;;;;;5105865;28;20245;-69
2023/03/08 05:05:44;;;;;;;10.23;7.95;;;;;;;;;;5105594;28;20234;-67
2023/03/08 05:08:10;;;;;;;13.00;8.35;;;;;;;;;;5104970;28;20204;-68
2023/03/08 05:10:37;;;;;;;12.70;8.60;;;;;;;;;;5105059;28;20237;-69
2023/03/08 05:13:03;;;;;;;12.07;9.13;;;;;;;;;;5105119;28;20212;-69
2023/03/08 05:15:31;;;;;;;13.60;8.20;;;;;;;;;;5105020;28;20241;-69
2023/03/08 05:17:57;;;;;;;9.95;8.02;;;;;;;;;;5104893;28;20200;-69
2023/03/08 05:20:23;;;;;;;12.75;9.00;;;;;;;;;;5105322;28;20523;-68
2023/03/08 05:22:50;;;;;;;11.93;8.23;;;;;;;;;;5104980;28;20537;-68
2023/03/08 05:25:16;;;;;;;14.30;10.52;;;;;;;;;;5105142;28;20212;-68
2023/03/08 05:27:42;;;;;;;17.98;9.73;;;;;;;;;;5104742;28;20583;-68
2023/03/08 05:30:09;;;;;;;14.43;10.15;;;;;;;;;;5105181;28;20200;-68
2023/03/08 05:32:37;;;;;;;13.75;9.68;;;;;;;;;;5104617;28;20261;-68
2023/03/08 05:35:03;;;;;;;16.25;9.63;;;;;;;;;;5104905;28;20199;-69
2023/03/08 05:37:29;;;;;;;13.05;8.70;;;;;;;;;;5104642;28;20391;-69
2023/03/08 05:39:56;;;;;;;14.02;9.15;;;;;;;;;;5104697;28;20196;-69
2023/03/08 05:42:22;;;;;;;12.88;9.52;;;;;;;;;;5104684;28;20464;-69
2023/03/08 05:44:48;;;;;;;14.68;9.20;;;;;;;;;;5103800;28;20241;-70
2023/03/08 05:47:14;;;;;;;14.38;9.38;;;;;;;;;;5104707;28;20253;-69
2023/03/08 05:49:42;;;;;;;14.27;9.63;;;;;;;;;;5104501;28;20437;-69
2023/03/08 05:52:08;;;;;;;15.70;8.98;;;;;;;;;;5104255;28;20429;-70
2023/03/08 05:54:35;;;;;;;16.73;9.30;;;;;;;;;;5104461;28;20200;-70
2023/03/08 05:57:01;;;;;;;11.85;8.60;;;;;;;;;;5104475;28;20358;-71
2023/03/08 05:59:27;;;;;;;10.35;8.05;;;;;;;;;;5103845;28;20245;-70
2023/03/08 06:01:53;;;;;;;12.77;8.75;;;;;;;;;;5104199;28;20210;-70
2023/03/08 06:04:20;;;;;;;12.07;8.48;;;;;;;;;;5104102;28;20229;-69
2023/03/08 06:06:47;;;;;;;12.88;8.15;;;;;;;;;;5103910;28;20195;-69
2023/03/08 06:09:13;;;;;;;13.27;8.98;;;;;;;;;;5103914;28;20210;-69
2023/03/08 06:11:40;;;;;;;14.52;8.73;;;;;;;;;;5103950;28;20272;-69
2023/03/08 06:14:06;;;;;;;14.50;9.40;;;;;;;;;;5103751;28;20253;-69
2023/03/08 06:16:32;;;;;;;12.88;8.90;;;;;;;;;;5103904;28;20384;-69
2023/03/08 06:19:00;;;;;;;12.48;8.40;;;;;;;;;;5103956;28;20284;-69
2023/03/08 06:21:27;;;;;;;12.63;9.07;;;;;;;;;;5103788;28;20430;-69
2023/03/08 06:23:54;;;;;;;13.32;10.02;;;;;;;;;;5103530;28;20518;-69
2023/03/08 06:26:20;;;;;;;14.20;9.45;;;;;;;;;;5103290;28;20471;-69
2023/03/08 06:28:47;;;;;;;14.65;10.23;;;;;;;;;;5103469;28;20549;-69
2023/03/08 06:31:14;;;;;;;13.95;9.40;;;;;;;;;;5103640;28;20526;-69
2023/03/08 06:33:40;;;;;;;12.05;9.18;;;;;;;;;;5103349;28;20253;-69
2023/03/08 06:36:08;;;;;;;13.50;8.80;;;;;;;;;;5103230;28;20241;-69
2023/03/08 06:38:35;;;;;;;13.82;9.20;;;;;;;;;;5103330;28;20419;-69
2023/03/08 06:41:03;;;;;;;15.80;9.18;;;;;;;;;;5103316;28;20241;-69
2023/03/08 06:43:29;;;;;;;16.80;9.40;;;;;;;;;;5103126;28;20192;-69
2023/03/08 06:45:55;;;;;;;14.77;9.02;;;;;;;;;;5103243;28;20384;-69
2023/03/08 06:48:22;;;;;;;16.30;9.88;;;;;;;;;;5103161;28;20532;-69
2023/03/08 06:50:48;;;;;;;12.05;9.40;;;;;;;;;;5103269;28;20196;-69
2023/03/08 06:53:14;;;;;;;16.02;9.93;;;;;;;;;;5102939;28;20438;-69
2023/03/08 06:55:41;;;;;;;15.45;10.07;;;;;;;;;;5103174;28;20221;-69
2023/03/08 06:58:09;;;;;;;21.58;9.77;;;;;;;;;;5102978;28;20200;-69
2023/03/08 07:00:35;;;;;;;12.77;9.43;;;;;;;;;;5103479;28;20257;-69
2023/03/08 07:03:02;;;;;;;14.00;9.32;;;;;;;;;;5103305;28;20551;-69
2023/03/08 07:05:28;;;;;;;20.80;10.57;;;;;;;;;;5103050;28;20221;-69
2023/03/08 07:07:54;;;;;;;16.60;9.77;;;;;;;;;;5102773;28;20268;-69
2023/03/08 07:10:21;;;;;;;17.20;9.93;;;;;;;;;;5103024;28;20204;-69
2023/03/08 07:12:50;;;;;;;13.52;10.18;;;;;;;;;;5103036;28;20265;-69
2023/03/08 07:15:18;;;;;;;18.13;9.98;;;;;;;;;;5103078;28;20203;-69
2023/03/08 07:17:44;;;;;;;14.15;9.77;;;;;;;;;;5103059;28;20199;-69
2023/03/08 07:20:12;;;;;;;14.48;9.70;;;;;;;;;;5103257;28;20333;-69
2023/03/08 07:22:40;;;;;;;16.40;10.55;;;;;;;;;;5103071;28;20228;-69
2023/03/08 07:25:07;;;;;;;20.65;12.32;;;;;;;;;;5085604;28;20511;-61
2023/03/08 07:27:33;;;;;;;15.60;10.00;;;;;;;;;;5087051;28;20219;-61
2023/03/08 07:29:59;;;;;;;17.23;10.63;;;;;;;;;;5080936;28;20397;-61
2023/03/08 07:32:27;;;;;;;17.95;10.43;;;;;;;;;;5096855;28;20207;-61
2023/03/08 07:34:54;;;;;;;22.27;10.70;;;;;;;;;;5096378;28;20227;-61
2023/03/08 07:37:20;;;;;;;16.85;10.30;;;;;;;;;;5093144;28;20589;-61
2023/03/08 07:39:46;;;;;;;16.83;9.85;;;;;;;;;;5092999;28;21418;-61
2023/03/08 07:42:12;;;;;;;20.17;11.80;;;;;;;;;;5093052;28;20526;-61
2023/03/08 07:44:39;;;;;;;20.30;11.60;;;;;;;;;;5094282;28;20438;-61
2023/03/08 07:47:05;;;;;;;13.90;9.98;;;;;;;;;;5094319;28;20275;-61
2023/03/08 07:49:33;;;;;;;16.45;11.30;;;;;;;;;;5092985;28;20256;-61
2023/03/08 07:51:59;;;;;;;20.02;11.35;;;;;;;;;;5092729;28;20543;-61
2023/03/08 07:54:25;;;;;;;17.70;11.23;;;;;;;;;;5092835;28;20340;-61
2023/03/08 07:56:52;;;;;;;16.45;10.65;;;;;;;;;;5093184;28;20211;-61
2023/03/08 07:59:18;;;;;;;24.52;11.05;;;;;;;;;;5093607;28;20527;-61
2023/03/08 08:01:44;;;;;;;15.48;11.00;;;;;;;;;;5093799;28;20212;-60
2023/03/08 08:04:12;;;;;;;15.57;10.88;;;;;;;;;;5091770;28;20207;-59
2023/03/08 08:06:39;;;;;;;14.80;9.93;;;;;;;;;;5090926;28;20508;-59
2023/03/08 08:09:06;;;;;;;15.43;11.18;;;;;;;;;;5097062;28;20234;-59
2023/03/08 08:11:33;;;;;;;14.98;10.20;;;;;;;;;;5098588;28;20234;-60
2023/03/08 08:13:59;;;;;;;14.77;10.23;;;;;;;;;;5098804;28;20223;-60
2023/03/08 08:16:25;;;;;;;14.35;9.90;;;;;;;;;;5098687;28;20450;-60
2023/03/08 08:18:52;;;;;;;16.77;10.50;;;;;;;;;;5098098;28;20491;-60
2023/03/08 08:21:18;;;;;;;15.05;10.85;;;;;;;;;;5098721;28;20215;-60
2023/03/08 08:23:46;;;;;;;14.70;10.02;;;;;;;;;;5098967;28;20539;-59
2023/03/08 08:26:13;;;;;;;14.30;10.32;;;;;;;;;;5098405;28;20543;-60
2023/03/08 08:28:40;;;;;;;14.27;9.70;;;;;;;;;;5095522;28;20232;-59
2023/03/08 08:31:07;;;;;;;15.52;10.32;;;;;;;;;;5098844;28;20584;-59
2023/03/08 08:33:40;;;;;;;12.55;10.30;;;;;;;;;;5098507;28;20227;-60
2023/03/08 08:36:07;;;;;;;17.27;10.88;;;;;;;;;;5098029;28;20218;-63
2023/03/08 08:38:33;;;;;;;18.80;10.65;;;;;;;;;;5097423;28;20211;-62
2023/03/08 08:41:02;;;;;;;17.58;11.50;;;;;;;;;;5098317;28;20385;-62
2023/03/08 08:43:28;;;;;;;16.08;12.00;;;;;;;;;;5099014;28;20204;-62
2023/03/08 08:45:55;;;;;;;19.63;12.68;;;;;;;;;;5098410;28;20625;-62
2023/03/08 08:48:22;;;;;;;19.92;13.38;;;;;;;;;;5098730;28;20212;-62
2023/03/08 08:50:48;;;;;;;20.08;13.23;;;;;;;;;;5098556;28;20215;-63
2023/03/08 08:53:15;;;;;;;18.13;13.07;;;;;;;;;;5098787;28;20553;-62
2023/03/08 08:55:41;;;;;;;18.60;12.98;;;;;;;;;;5097343;28;20211;-62
2023/03/08 08:58:09;;;;;;;22.63;14.10;;;;;;;;;;5098601;28;20208;-62
2023/03/08 09:00:35;;;;;;;24.83;13.68;;;;;;;;;;5097682;28;20212;-62
2023/03/08 09:03:02;;;;;;;22.88;14.77;;;;;;;;;;5097531;28;20211;-62
2023/03/08 09:05:28;;;;;;;19.10;13.73;;;;;;;;;;5098123;28;20417;-62
2023/03/08 09:07:57;;;;;;;24.95;14.68;;;;;;;;;;5097377;28;20211;-62
2023/03/08 09:10:23;;;;;;;24.90;14.48;;;;;;;;;;5098031;28;20280;-62
2023/03/08 09:12:50;;;;;;;20.60;13.82;;;;;;;;;;5098814;28;20455;-62
2023/03/08 09:15:17;;;;;;;22.05;12.82;;;;;;;;;;5097399;28;20403;-61
2023/03/08 09:17:44;;;;;;;22.30;13.30;;;;;;;;;;5096979;28;20531;-60
2023/03/08 09:20:10;;;;;;;23.75;13.63;;;;;;;;;;5096383;28;20265;-60
2023/03/08 09:22:37;;;;;;;23.48;13.88;;;;;;;;;;5096337;28;20249;-60
2023/03/08 09:25:04;;;;;;;17.55;13.55;;;;;;;;;;5096626;28;20268;-60
2023/03/08 09:27:30;;;;;;;21.25;13.63;;;;;;;;;;5097166;28;20235;-60
2023/03/08 09:29:56;;;;;;;18.60;12.25;;;;;;;;;;5096662;28;20261;-59
2023/03/08 09:32:24;;;;;;;20.20;12.40;;;;;;;;;;5097328;28;20228;-61
2023/03/08 09:34:51;;;;;;;20.45;12.68;;;;;;;;;;5097476;28;20223;-60
2023/03/08 09:37:17;;;;;;;21.17;12.68;;;;;;;;;;5097535;28;20562;-60
2023/03/08 09:39:44;;;;;;;16.75;12.57;;;;;;;;;;5096203;28;20211;-61
2023/03/08 09:42:19;;;;;;;22.83;13.45;;;;;;;;;;5096141;28;20207;-61
2023/03/08 09:44:55;;;;;;;25.52;13.55;;;;;;;;;;5095757;28;20286;-61
2023/03/08 09:47:38;;;;;;;19.00;12.23;;;;;;;;;;5093455;28;20211;-60
2023/03/08 09:50:12;;;;;;;17.02;11.57;;;;;;;;;;5094734;28;20203;-60
2023/03/08 09:52:40;;;;;;;18.48;12.38;;;;;;;;;;5096691;28;20214;-61
2023/03/08 09:55:13;;;;;;;18.15;11.43;;;;;;;;;;5096451;28;20235;-60
2023/03/08 09:57:42;;;;;;;20.55;12.05;;;;;;;;;;5097246;28;20219;-60
2023/03/08 10:00:17;;;;;;;22.55;11.98;;;;;;;;;;5096648;28;20306;-60
2023/03/08 10:02:46;;;;;;;18.85;12.07;;;;;;;;;;5096499;28;20207;-60
2023/03/08 10:05:17;;;;;;;15.82;10.88;;;;;;;;;;5095447;28;20212;-61
2023/03/08 10:07:48;;;;;;;19.33;11.45;;;;;;;;;;5096349;28;20211;-60
2023/03/08 10:10:22;;;;;;;19.70;12.57;;;;;;;;;;5096734;28;20223;-61
2023/03/08 10:12:55;;;;;;;20.10;12.82;;;;;;;;;;5096408;28;20211;-61
2023/03/08 10:15:22;;;;;;;17.33;10.95;;;;;;;;;;5095437;28;20499;-61
2023/03/08 10:17:51;;;;;;;15.32;9.73;;;;;;;;;;5095404;28;20215;-60
2023/03/08 10:20:21;;;;;;;15.02;10.10;;;;;;;;;;5096103;28;20218;-61
2023/03/08 10:22:51;;;;;;;13.55;9.63;;;;;;;;;;5096191;28;20231;-61
2023/03/08 10:25:21;;;;;;;13.68;10.07;;;;;;;;;;5096315;28;20242;-61
2023/03/08 10:27:50;;;;;;;11.50;9.18;;;;;;;;;;5095987;28;20558;-60
2023/03/08 10:30:18;;;;;;;14.45;10.10;;;;;;;;;;5096020;28;20218;-60
2023/03/08 10:32:45;;;;;;;15.98;10.07;;;;;;;;;;5096749;28;20425;-60
2023/03/08 10:35:12;;;;;;;21.77;14.15;;;;;;;;;;5096616;28;20235;-60
2023/03/08 10:37:40;;;;;;;19.02;10.80;;;;;;;;;;5095863;28;20215;-60
2023/03/08 10:40:08;;;;;;;16.52;9.80;;;;;;;;;;5097268;28;20215;-61
2023/03/08 10:42:34;;;;;;;17.58;9.40;;;;;;;;;;5096772;28;20543;-60
2023/03/08 10:45:04;;;;;;;10.73;8.73;;;;;;;;;;5096387;28;20253;-60
2023/03/08 10:47:31;;;;;;;13.48;7.90;;;;;;;;;;5096521;28;20460;-60
2023/03/08 10:50:12;;;;;;;8.77;7.32;;;;;;;;;;5096690;28;20215;-60
2023/03/08 10:52:40;;;;;;;11.70;8.55;;;;;;;;;;5096032;28;20250;-60
2023/03/08 10:55:11;;;;;;;9.90;7.80;;;;;;;;;;5096099;28;20442;-60
2023/03/08 10:57:39;;;;;;;13.10;7.80;;;;;;;;;;5092889;28;20252;-61
2023/03/08 11:00:12;;;;;;;13.32;8.60;;;;;;;;;;5095771;28;20215;-60
2023/03/08 11:02:38;;;;;;;9.18;7.18;;;;;;;;;;5095821;28;20527;-61
2023/03/08 11:05:16;;;;;;;6.93;5.70;;;;;;;;;;5095351;28;20246;-60
2023/03/08 11:07:49;;;;;;;4.25;3.95;;;;;;;;;;5094625;28;20457;-61
2023/03/08 11:10:17;;;;;;;3.38;3.15;;;;;;;;;;5095508;28;20224;-61
2023/03/08 11:12:44;;;;;;;7.13;2.75;;;;;;;;;;5095948;28;20239;-60
2023/03/08 11:15:14;;;;;;;2.10;2.00;;;;;;;;;;5095057;28;20604;-61
2023/03/08 11:17:43;;;;;;;4.18;2.10;;;;;;;;;;5095516;28;20303;-61
2023/03/08 11:20:15;;;;;;;2.75;2.22;;;;;;;;;;5094430;28;20503;-60
2023/03/08 11:22:51;;;;;;;1.98;1.88;;;;;;;;;;5095116;28;20416;-60
2023/03/08 11:25:29;;;;;;;2.60;1.83;;;;;;;;;;5095361;28;20207;-60
2023/03/08 11:28:00;;;;;;;1.95;1.65;;;;;;;;;;5096073;28;20227;-61
2023/03/08 11:30:32;;;;;;;1.25;1.25;;;;;;;;;;5095685;28;20257;-60
2023/03/08 11:33:07;;;;;;;2.63;1.10;;;;;;;;;;5095696;28;20280;-60
2023/03/08 11:35:35;;;;;;;1.00;1.00;;;;;;;;;;5094712;28;20210;-60
2023/03/08 11:38:06;;;;;;;3.80;1.13;;;;;;;;;;5094422;28;20215;-60
2023/03/08 11:40:47;;;;;;;1.00;1.00;;;;;;;;;;5095069;28;20466;-60
2023/03/08 11:43:19;;;;;;;0.95;0.70;;;;;;;;;;5095024;28;20543;-61
2023/03/08 11:45:49;;;;;;;1.00;0.82;;;;;;;;;;5094811;28;20265;-61
2023/03/08 11:48:33;;;;;;;0.50;0.50;;;;;;;;;;5095632;28;20284;-60
2023/03/08 11:51:02;;;;;;;0.50;0.50;;;;;;;;;;5085284;28;20535;-60
2023/03/08 11:53:35;;;;;;;2.83;0.85;;;;;;;;;;5095389;28;20212;-60
2023/03/08 11:56:10;;;;;;;4.22;0.73;;;;;;;;;;5095169;28;20304;-60
2023/03/08 11:58:38;;;;;;;0.60;0.50;;;;;;;;;;5095689;28;20253;-61
2023/03/08 12:01:09;;;;;;;1.40;0.70;;;;;;;;;;5095103;28;20452;-61
2023/03/08 12:03:38;;;;;;;0.82;0.50;;;;;;;;;;5095176;28;20285;-60
2023/03/08 12:06:05;;;;;;;0.40;0.40;;;;;;;;;;5094750;28;20215;-61
2023/03/08 12:08:35;;;;;;;0.30;0.30;;;;;;;;;;5090662;28;20544;-61
2023/03/08 12:11:03;;;;;;;4.68;0.60;;;;;;;;;;5096130;28;20203;-61
2023/03/08 12:13:32;;;;;;;1.35;0.40;;;;;;;;;;5095513;28;20286;-61
2023/03/08 12:16:03;;;;;;;2.35;0.60;;;;;;;;;;5094883;28;20436;-61
2023/03/08 12:18:31;;;;;;;0.40;0.40;;;;;;;;;;5095124;28;20211;-61
2023/03/08 12:21:02;;;;;;;5.53;0.65;;;;;;;;;;5095656;28;20523;-61
2023/03/08 12:23:30;;;;;;;1.77;0.63;;;;;;;;;;5095106;28;20219;-61
2023/03/08 12:26:02;;;;;;;1.35;0.50;;;;;;;;;;5094973;28;20644;-61
2023/03/08 12:28:31;;;;;;;2.55;0.50;;;;;;;;;;5095481;28;20265;-61
2023/03/08 12:31:03;;;;;;;2.85;0.45;;;;;;;;;;5094485;28;20215;-61
2023/03/08 12:33:31;;;;;;;2.05;0.45;;;;;;;;;;5093732;28;20211;-61
2023/03/08 12:35:58;;;;;;;1.35;0.60;;;;;;;;;;5094614;28;20330;-60
2023/03/08 12:38:35;;;;;;;1.88;0.40;;;;;;;;;;5093914;28;20211;-61
2023/03/08 12:41:05;;;;;;;1.48;0.50;;;;;;;;;;5094981;28;20211;-60
2023/03/08 12:43:32;;;;;;;1.10;0.50;;;;;;;;;;5094407;28;20216;-60
2023/03/08 12:46:01;;;;;;;0.40;0.40;;;;;;;;;;5094235;28;20384;-61
2023/03/08 12:48:29;;;;;;;2.88;0.50;;;;;;;;;;5094766;28;20204;-60
2023/03/08 12:50:57;;;;;;;5.40;0.70;;;;;;;;;;5094615;28;20475;-60
2023/03/08 12:53:31;;;;;;;0.95;0.45;;;;;;;;;;5095372;28;20204;-60
2023/03/08 12:56:04;;;;;;;1.95;0.40;;;;;;;;;;5098489;28;20296;-60
2023/03/08 12:58:30;;;;;;;1.60;0.40;;;;;;;;;;5097918;28;20444;-60
2023/03/08 13:00:58;;;;;;;1.95;0.50;;;;;;;;;;5098906;28;20264;-60
2023/03/08 13:03:28;;;;;;;0.40;0.40;;;;;;;;;;5097716;28;20557;-60
2023/03/08 13:05:55;;;;;;;1.83;0.40;;;;;;;;;;5097501;28;20841;-60
2023/03/08 13:08:31;;;;;;;1.58;0.38;;;;;;;;;;5097941;28;20535;-60
2023/03/08 13:11:05;;;;;;;3.67;0.50;;;;;;;;;;5098364;28;20207;-61
2023/03/08 13:13:39;;;;;;;0.80;0.38;;;;;;;;;;5098656;28;20212;-61
2023/03/08 13:16:06;;;;;;;0.80;0.30;;;;;;;;;;5097271;28;20238;-60
2023/03/08 13:18:32;;;;;;;2.65;0.40;;;;;;;;;;5096969;28;20211;-60
2023/03/08 13:21:07;;;;;;;2.13;1.10;;;;;;;;;;5097657;28;20257;-60
2023/03/08 13:23:35;;;;;;;2.33;0.50;;;;;;;;;;5097519;28;20550;-60
2023/03/08 13:26:09;;;;;;;0.40;0.40;;;;;;;;;;5098105;28;20566;-61
2023/03/08 13:28:36;;;;;;;1.13;0.30;;;;;;;;;;5097092;28;20466;-59
2023/03/08 13:31:03;;;;;;;1.55;0.47;;;;;;;;;;5098424;28;20249;-61
2023/03/08 13:33:31;;;;;;;1.13;0.40;;;;;;;;;;5096702;28;20542;-60
2023/03/08 13:35:58;;;;;;;0.40;0.40;;;;;;;;;;5097940;28;20297;-61
2023/03/08 13:38:25;;;;;;;2.67;0.45;;;;;;;;;;5096963;28;20266;-61
2023/03/08 13:40:52;;;;;;;1.95;0.40;;;;;;;;;;5097080;28;20212;-62
2023/03/08 13:43:20;;;;;;;2.28;0.60;;;;;;;;;;5097347;28;20273;-61
2023/03/08 13:45:47;;;;;;;0.38;0.38;;;;;;;;;;5097382;28;20555;-60
2023/03/08 13:48:14;;;;;;;0.43;0.43;;;;;;;;;;5096165;28;20569;-61
2023/03/08 13:50:43;;;;;;;0.40;0.40;;;;;;;;;;5099096;28;20212;-60
2023/03/08 13:53:10;;;;;;;0.50;0.50;;;;;;;;;;5098269;28;20279;-60
2023/03/08 13:55:39;;;;;;;1.95;0.50;;;;;;;;;;5097751;28;20559;-61
2023/03/08 13:58:05;;;;;;;0.47;0.47;;;;;;;;;;5097848;28;20219;-61
2023/03/08 14:00:34;;;;;;;1.33;0.40;;;;;;;;;;5098059;28;20219;-61
2023/03/08 14:03:02;;;;;;;0.40;0.40;;;;;;;;;;5097569;28;20483;-62
2023/03/08 14:05:30;;;;;;;0.35;0.35;;;;;;;;;;5096751;28;20650;-61
2023/03/08 14:07:57;;;;;;;2.63;0.47;;;;;;;;;;5089955;28;20234;-60
2023/03/08 14:10:26;;;;;;;0.55;0.50;;;;;;;;;;5097428;28;20220;-61
2023/03/08 14:12:53;;;;;;;0.63;0.40;;;;;;;;;;5097643;28;20246;-61
2023/03/08 14:15:20;;;;;;;0.60;0.30;;;;;;;;;;5097600;28;20262;-60
2023/03/08 14:17:49;;;;;;;2.22;0.30;;;;;;;;;;5097384;28;20222;-61
2023/03/08 14:20:18;;;;;;;0.20;0.20;;;;;;;;;;5098013;28;20602;-61
2023/03/08 14:22:46;;;;;;;0.30;0.30;;;;;;;;;;5096729;28;20212;-61
2023/03/08 14:25:21;;;;;;;0.20;0.20;;;;;;;;;;5097831;28;20191;-60
2023/03/08 14:27:47;;;;;;;0.25;0.25;;;;;;;;;;5097231;28;20272;-61
2023/03/08 14:30:14;;;;;;;0.30;0.30;;;;;;;;;;5097703;28;20234;-61
2023/03/08 14:32:42;;;;;;;2.65;0.30;;;;;;;;;;5095724;28;20204;-60
2023/03/08 14:35:17;;;;;;;1.30;0.40;;;;;;;;;;5095855;28;20227;-61